Weather at Reno Tahoe International Airport

Public forecast

Using degrees Fahrenheit for public forecast. Weather courtesy of forecast.io.

Current aviation weather report (METAR) for Reno Tahoe International Airport

Report is more than 6 hours old.

2022/11/14 14:55 (retrieved 2 years ago)

KRNO 141455Z 00000KT 10SM CLR M06/M08 A3025 RMK AO2 SLP265 T10561078 53015

Aviation forecast (TAF) for Reno Tahoe International Airport

Forecast is more than 12 hours old.

2023/02/22 18:30 (retrieved 1 year ago)

TAF KRNO 221729Z 2218/2318 31011KT P6SM SCT050 BKN100 FM222000 29014G24KT P6SM VCSH SCT030 BKN050 FM231500 25016G26KT P6SM BKN040 BKN090